Time,TemperatureF,DewpointF,PressureIn,WindDirection,WindDirectionDegrees,WindSpeedMPH,WindSpeedGustMPH,Humidity,HourlyPrecipIn,Conditions,Clouds,dailyrainin,SoftwareType,DateUTC
2013-11-30 00:00:00,29.6,22.7,30.51,ESE,111,3.0,7.0,75,0.00,,---,0.00,VWS V14.01,2013-11-30 05:00:00,
2013-11-30 00:01:00,29.6,22.7,30.51,ESE,111,3.0,7.0,75,0.00,,---,0.00,VWS V14.01,2013-11-30 05:01:00,
2013-11-30 00:30:00,29.8,22.9,30.50,ESE,114,4.0,8.0,75,0.00,,---,0.00,VWS V14.01,2013-11-30 05:30:00,
2013-11-30 00:31:00,29.8,22.9,30.50,ESE,114,4.0,8.0,75,0.00,,---,0.00,VWS V14.01,2013-11-30 05:31:00,
2013-11-30 01:00:00,29.8,22.9,30.49,SSE,153,4.0,7.0,75,0.00,,---,0.00,VWS V14.01,2013-11-30 06:00:00,
2013-11-30 01:01:00,29.8,22.9,30.49,SSE,153,4.0,7.0,75,0.00,,---,0.00,VWS V14.01,2013-11-30 06:01:00,
2013-11-30 01:30:00,29.4,22.8,30.49,ESE,105,4.0,7.0,76,0.00,,---,0.00,VWS V14.01,2013-11-30 06:30:00,
2013-11-30 01:31:00,29.4,22.8,30.49,ESE,105,4.0,7.0,76,0.00,,---,0.00,VWS V14.01,2013-11-30 06:31:00,
2013-11-30 02:00:00,28.8,22.8,30.48,SE,141,1.0,5.0,78,0.00,,---,0.00,VWS V14.01,2013-11-30 07:00:00,
2013-11-30 02:01:00,28.8,22.8,30.48,SE,141,1.0,5.0,78,0.00,,---,0.00,VWS V14.01,2013-11-30 07:01:00,
2013-11-30 02:30:00,29.2,23.2,30.47,SSE,153,3.0,5.0,78,0.00,,---,0.00,VWS V14.01,2013-11-30 07:30:00,
2013-11-30 02:31:00,29.2,23.2,30.47,SSE,153,3.0,5.0,78,0.00,,---,0.00,VWS V14.01,2013-11-30 07:31:00,
2013-11-30 03:00:00,29.4,23.4,30.47,SSE,150,0.0,6.0,78,0.00,,---,0.00,VWS V14.01,2013-11-30 08:00:00,
2013-11-30 03:01:00,29.4,23.4,30.47,SSE,150,0.0,6.0,78,0.00,,---,0.00,VWS V14.01,2013-11-30 08:01:00,
2013-11-30 03:31:00,29.4,23.7,30.46,SSE,167,1.0,6.0,79,0.00,,---,0.00,VWS V14.01,2013-11-30 08:31:00,
2013-11-30 04:01:00,29.3,23.6,30.45,SSE,152,4.0,5.0,79,0.00,,---,0.00,VWS V14.01,2013-11-30 09:01:00,
2013-11-30 04:30:00,29.3,23.9,30.44,SE,135,2.0,6.0,80,0.00,,---,0.00,VWS V14.01,2013-11-30 09:30:00,
2013-11-30 04:31:00,29.3,23.9,30.44,SE,135,2.0,6.0,80,0.00,,---,0.00,VWS V14.01,2013-11-30 09:31:00,
2013-11-30 05:00:00,29.4,24.0,30.43,SE,141,3.0,6.0,80,0.00,,---,0.00,VWS V14.01,2013-11-30 10:00:00,
2013-11-30 05:01:00,29.4,24.0,30.43,SE,141,3.0,6.0,80,0.00,,---,0.00,VWS V14.01,2013-11-30 10:01:00,
2013-11-30 05:31:00,29.6,24.2,30.43,SE,136,3.0,7.0,80,0.00,,---,0.00,VWS V14.01,2013-11-30 10:31:00,
2013-11-30 06:01:00,29.5,24.1,30.41,SSE,150,3.0,7.0,80,0.00,,---,0.00,VWS V14.01,2013-11-30 11:01:00,
2013-11-30 06:30:00,29.2,23.8,30.41,SSE,150,1.0,6.0,80,0.00,,---,0.00,VWS V14.01,2013-11-30 11:30:00,
2013-11-30 06:31:00,29.2,23.8,30.41,SSE,150,1.0,6.0,80,0.00,,---,0.00,VWS V14.01,2013-11-30 11:31:00,
2013-11-30 07:00:00,29.6,24.2,30.41,SSE,149,1.0,6.0,80,0.00,,---,0.00,VWS V14.01,2013-11-30 12:00:00,
2013-11-30 07:01:00,29.6,24.2,30.41,SSE,149,1.0,6.0,80,0.00,,---,0.00,VWS V14.01,2013-11-30 12:01:00,
2013-11-30 07:31:00,29.8,24.4,30.40,SSE,162,0.0,9.0,80,0.00,,---,0.00,VWS V14.01,2013-11-30 12:31:00,
2013-11-30 08:00:00,29.5,24.1,30.39,SSE,164,2.0,4.0,80,0.00,,---,0.00,VWS V14.01,2013-11-30 13:00:00,
2013-11-30 08:01:00,29.5,24.1,30.39,SSE,164,2.0,4.0,80,0.00,,---,0.00,VWS V14.01,2013-11-30 13:01:00,
2013-11-30 08:30:00,29.3,24.2,30.39,SSW,194,1.0,6.0,81,0.00,,---,0.00,VWS V14.01,2013-11-30 13:30:00,
2013-11-30 08:31:00,29.3,24.2,30.39,SSW,194,1.0,6.0,81,0.00,,---,0.00,VWS V14.01,2013-11-30 13:31:00,
2013-11-30 09:00:00,29.7,24.6,30.38,ESE,122,3.0,8.0,81,0.00,,---,0.00,VWS V14.01,2013-11-30 14:00:00,
2013-11-30 09:01:00,29.7,24.6,30.38,ESE,122,3.0,8.0,81,0.00,,---,0.00,VWS V14.01,2013-11-30 14:01:00,
2013-11-30 09:31:00,30.5,25.4,30.37,SE,141,2.0,5.0,81,0.00,,---,0.00,VWS V14.01,2013-11-30 14:31:00,
2013-11-30 10:01:00,33.4,27.0,30.35,SE,136,1.0,5.0,77,0.00,,---,0.00,VWS V14.01,2013-11-30 15:01:00,
2013-11-30 10:30:00,35.4,28.3,30.34,SE,124,2.0,8.0,75,0.00,,---,0.00,VWS V14.01,2013-11-30 15:30:00,
2013-11-30 10:31:00,35.4,28.3,30.34,SE,124,2.0,8.0,75,0.00,,---,0.00,VWS V14.01,2013-11-30 15:31:00,
2013-11-30 11:00:00,37.6,29.1,30.33,East,96,2.0,10.0,71,0.00,,---,0.00,VWS V14.01,2013-11-30 16:00:00,
2013-11-30 11:01:00,37.6,29.1,30.33,East,96,2.0,10.0,71,0.00,,---,0.00,VWS V14.01,2013-11-30 16:01:00,
2013-11-30 11:30:00,39.5,30.2,30.31,SE,136,1.0,7.0,69,0.00,,---,0.00,VWS V14.01,2013-11-30 16:30:00,
2013-11-30 11:31:00,39.5,30.2,30.31,SE,136,1.0,7.0,69,0.00,,---,0.00,VWS V14.01,2013-11-30 16:31:00,
2013-11-30 12:01:00,41.8,31.3,30.29,SSW,208,1.0,11.0,66,0.00,,---,0.00,VWS V14.01,2013-11-30 17:01:00,
2013-11-30 12:30:00,43.9,31.3,30.27,SW,214,3.0,8.0,61,0.00,,---,0.00,VWS V14.01,2013-11-30 17:30:00,
2013-11-30 12:31:00,43.9,31.3,30.27,SW,214,3.0,8.0,61,0.00,,---,0.00,VWS V14.01,2013-11-30 17:31:00,
2013-11-30 13:00:00,45.6,32.5,30.25,SW,218,5.0,9.0,60,0.00,,---,0.00,VWS V14.01,2013-11-30 18:00:00,
2013-11-30 13:01:00,45.6,32.5,30.25,SW,218,5.0,9.0,60,0.00,,---,0.00,VWS V14.01,2013-11-30 18:01:00,
2013-11-30 13:30:00,47.2,32.8,30.23,South,177,5.0,11.0,57,0.00,,---,0.00,VWS V14.01,2013-11-30 18:30:00,
2013-11-30 13:31:00,47.2,32.8,30.23,South,177,5.0,11.0,57,0.00,,---,0.00,VWS V14.01,2013-11-30 18:31:00,
2013-11-30 14:00:00,47.7,33.7,30.20,SW,229,8.0,15.0,58,0.00,,---,0.00,VWS V14.01,2013-11-30 19:00:00,
2013-11-30 14:01:00,47.7,33.7,30.20,SW,229,8.0,15.0,58,0.00,,---,0.00,VWS V14.01,2013-11-30 19:01:00,
2013-11-30 14:30:00,48.9,33.9,30.19,WSW,239,4.0,10.0,56,0.00,,---,0.00,VWS V14.01,2013-11-30 19:30:00,
2013-11-30 14:31:00,48.9,33.9,30.19,WSW,239,4.0,10.0,56,0.00,,---,0.00,VWS V14.01,2013-11-30 19:31:00,
2013-11-30 15:00:00,49.3,32.9,30.17,SW,221,3.0,11.0,53,0.00,,---,0.00,VWS V14.01,2013-11-30 20:00:00,
2013-11-30 15:01:00,49.3,32.9,30.17,SW,221,3.0,11.0,53,0.00,,---,0.00,VWS V14.01,2013-11-30 20:01:00,
2013-11-30 15:31:00,49.7,33.3,30.16,SW,229,4.0,10.0,53,0.00,,---,0.00,VWS V14.01,2013-11-30 20:31:00,
2013-11-30 16:00:00,49.2,32.8,30.15,SSW,207,5.0,9.0,53,0.00,,---,0.00,VWS V14.01,2013-11-30 21:00:00,
2013-11-30 16:01:00,49.2,32.8,30.15,SSW,207,5.0,9.0,53,0.00,,---,0.00,VWS V14.01,2013-11-30 21:01:00,
2013-11-30 16:30:00,49.1,32.7,30.15,SSW,197,0.0,11.0,53,0.00,,---,0.00,VWS V14.01,2013-11-30 21:30:00,
2013-11-30 16:31:00,49.1,32.7,30.15,SSW,197,0.0,11.0,53,0.00,,---,0.00,VWS V14.01,2013-11-30 21:31:00,
2013-11-30 17:00:00,48.4,32.1,30.15,SSW,201,0.0,5.0,53,0.00,,---,0.00,VWS V14.01,2013-11-30 22:00:00,
2013-11-30 17:01:00,48.4,32.1,30.15,SSW,201,0.0,5.0,53,0.00,,---,0.00,VWS V14.01,2013-11-30 22:01:00,
2013-11-30 17:31:00,42.7,30.6,30.15,SE,124,1.0,2.0,62,0.00,,---,0.00,VWS V14.01,2013-11-30 22:31:00,
2013-11-30 18:00:00,39.1,30.2,30.15,ESE,115,1.0,2.0,70,0.00,,---,0.00,VWS V14.01,2013-11-30 23:00:00,
2013-11-30 18:01:00,39.1,30.2,30.15,ESE,115,1.0,2.0,70,0.00,,---,0.00,VWS V14.01,2013-11-30 23:01:00,
2013-11-30 18:30:00,36.7,29.5,30.15,ESE,117,2.0,2.0,75,0.00,,---,0.00,VWS V14.01,2013-11-30 23:30:00,
2013-11-30 18:31:00,36.7,29.5,30.15,ESE,117,2.0,2.0,75,0.00,,---,0.00,VWS V14.01,2013-11-30 23:31:00,
2013-11-30 19:01:00,37.6,29.7,30.14,SE,131,1.0,3.0,73,0.00,,---,0.00,VWS V14.01,2013-12-01 00:01:00,
2013-11-30 19:30:00,36.6,29.1,30.15,ESE,115,1.0,2.0,74,0.00,,---,0.00,VWS V14.01,2013-12-01 00:30:00,
2013-11-30 19:31:00,36.6,29.1,30.15,ESE,115,1.0,2.0,74,0.00,,---,0.00,VWS V14.01,2013-12-01 00:31:00,
2013-11-30 20:00:00,34.7,28.9,30.15,ESE,113,2.0,2.0,79,0.00,,---,0.00,VWS V14.01,2013-12-01 01:00:00,
2013-11-30 20:01:00,34.7,28.9,30.15,ESE,113,2.0,2.0,79,0.00,,---,0.00,VWS V14.01,2013-12-01 01:01:00,
2013-11-30 20:30:00,35.2,28.7,30.14,ESE,120,2.0,2.0,77,0.00,,---,0.00,VWS V14.01,2013-12-01 01:30:00,
2013-11-30 20:31:00,35.2,28.7,30.14,ESE,120,2.0,2.0,77,0.00,,---,0.00,VWS V14.01,2013-12-01 01:31:00,
2013-11-30 21:00:00,34.1,28.3,30.14,ESE,121,1.0,2.0,79,0.00,,---,0.00,VWS V14.01,2013-12-01 02:00:00,
2013-11-30 21:01:00,34.1,28.3,30.14,ESE,121,1.0,2.0,79,0.00,,---,0.00,VWS V14.01,2013-12-01 02:01:00,
2013-11-30 21:31:00,34.0,28.2,30.14,ESE,120,1.0,2.0,79,0.00,,---,0.00,VWS V14.01,2013-12-01 02:31:00,
2013-11-30 22:01:00,33.3,28.1,30.13,ESE,117,1.0,2.0,81,0.00,,---,0.00,VWS V14.01,2013-12-01 03:01:00,
2013-11-30 22:31:00,33.4,27.9,30.13,ESE,117,1.0,2.0,80,0.00,,---,0.00,VWS V14.01,2013-12-01 03:31:00,
2013-11-30 23:00:00,33.0,27.8,30.13,ESE,122,1.0,2.0,81,0.00,,---,0.00,VWS V14.01,2013-12-01 04:00:00,
2013-11-30 23:01:00,33.0,27.8,30.13,ESE,122,1.0,2.0,81,0.00,,---,0.00,VWS V14.01,2013-12-01 04:01:00,
2013-11-30 23:30:00,36.1,29.6,30.12,ESE,110,1.0,1.0,77,0.00,,---,0.00,VWS V14.01,2013-12-01 04:30:00,
2013-11-30 23:31:00,36.1,29.6,30.12,ESE,110,1.0,1.0,77,0.00,,---,0.00,VWS V14.01,2013-12-01 04:31:00,